createdAt,value
2022-10-06T00:02:23.231Z,15.19
2022-10-06T00:05:46.137Z,15.28
2022-10-06T00:09:04.101Z,15.42
2022-10-06T00:12:27.135Z,14.20
2022-10-06T00:15:51.170Z,13.53
2022-10-06T00:19:08.056Z,14.69
2022-10-06T00:22:25.152Z,16.10
2022-10-06T00:25:48.139Z,16.04
2022-10-06T00:29:12.174Z,14.56
2022-10-06T00:32:36.126Z,14.27
2022-10-06T00:36:00.148Z,15.30
2022-10-06T00:39:24.177Z,15.33
2022-10-06T00:42:48.211Z,15.22
2022-10-06T00:46:12.237Z,15.18
2022-10-06T00:49:48.148Z,16.25
2022-10-06T00:53:13.284Z,15.88
2022-10-06T00:56:37.171Z,14.73
2022-10-06T01:00:01.171Z,13.98
2022-10-06T01:03:31.157Z,13.63
2022-10-06T01:07:01.212Z,13.53
2022-10-06T01:10:27.211Z,13.61
2022-10-06T01:13:51.181Z,14.10
2022-10-06T01:17:18.161Z,14.11
2022-10-06T01:20:42.190Z,13.37
2022-10-06T01:24:06.127Z,13.68
2022-10-06T01:27:31.178Z,14.08
2022-10-06T01:31:01.254Z,14.27
2022-10-06T01:34:26.237Z,14.01
2022-10-06T01:37:50.154Z,13.49
2022-10-06T01:41:14.188Z,13.68
2022-10-06T01:44:39.195Z,14.41
2022-10-06T01:48:03.149Z,14.24
2022-10-06T01:51:30.199Z,14.73
2022-10-06T01:54:54.143Z,15.92
2022-10-06T01:58:18.269Z,15.21
2022-10-06T02:01:44.251Z,14.41
2022-10-06T02:05:08.152Z,14.72
2022-10-06T02:08:36.255Z,14.81
2022-10-06T02:12:00.296Z,15.53
2022-10-06T02:15:29.176Z,15.88
2022-10-06T02:18:53.202Z,15.62
2022-10-06T02:22:17.242Z,15.09
2022-10-06T02:25:41.251Z,15.77
2022-10-06T02:29:06.197Z,15.90
2022-10-06T02:32:31.267Z,15.74
2022-10-06T02:35:55.275Z,14.98
2022-10-06T02:39:19.203Z,15.77
2022-10-06T02:42:43.210Z,15.50
2022-10-06T02:46:19.258Z,15.90
2022-10-06T02:49:43.234Z,15.39
2022-10-06T02:53:08.226Z,15.10
2022-10-06T02:56:34.183Z,15.04
2022-10-06T02:59:58.216Z,15.19
2022-10-06T03:03:23.188Z,14.58
2022-10-06T03:06:47.289Z,14.78
2022-10-06T03:10:17.273Z,14.04
2022-10-06T03:13:41.258Z,14.95
2022-10-06T03:17:05.199Z,14.77
2022-10-06T03:20:36.194Z,14.36
2022-10-06T03:24:04.160Z,14.48
2022-10-06T03:27:29.225Z,14.50
2022-10-06T03:30:56.339Z,14.82
2022-10-06T03:34:23.197Z,14.42
2022-10-06T03:37:49.186Z,14.59
2022-10-06T03:41:30.254Z,14.65
2022-10-06T03:44:55.151Z,14.80
2022-10-06T03:48:19.231Z,14.55
2022-10-06T03:51:49.155Z,15.00
2022-10-06T03:55:18.235Z,14.97
2022-10-06T03:58:43.220Z,15.14
2022-10-06T04:02:08.272Z,14.63
2022-10-06T04:05:34.182Z,14.39
2022-10-06T04:08:58.255Z,14.36
2022-10-06T04:12:23.186Z,14.33
2022-10-06T04:15:47.274Z,14.28
2022-10-06T04:19:13.251Z,13.55
2022-10-06T04:22:36.805Z,13.42
2022-10-06T04:25:56.069Z,13.27
2022-10-06T04:29:20.332Z,13.48
2022-10-06T04:32:47.227Z,13.56
2022-10-06T04:36:13.243Z,13.02
2022-10-06T04:39:37.219Z,12.86
2022-10-06T04:43:01.234Z,13.23
2022-10-06T04:46:42.174Z,12.88
2022-10-06T04:50:10.193Z,13.01
2022-10-06T04:53:54.177Z,12.74
2022-10-06T04:57:19.233Z,12.79
2022-10-06T05:00:44.222Z,12.90
2022-10-06T05:04:11.273Z,12.46
2022-10-06T05:07:35.228Z,12.41
2022-10-06T05:10:58.210Z,12.48
2022-10-06T05:14:22.218Z,12.37
2022-10-06T05:17:47.229Z,12.40
2022-10-06T05:21:22.260Z,12.50
2022-10-06T05:24:48.214Z,12.28
2022-10-06T05:28:13.281Z,11.99
2022-10-06T05:31:40.398Z,11.74
2022-10-06T05:35:05.242Z,11.64
2022-10-06T05:38:30.818Z,11.21
2022-10-06T05:41:55.234Z,11.13
2022-10-06T05:45:19.273Z,10.95
2022-10-06T05:48:45.182Z,10.89
2022-10-06T05:52:12.271Z,10.70
2022-10-06T05:55:37.270Z,10.78
2022-10-06T05:59:06.239Z,10.66
2022-10-06T06:02:30.299Z,10.56
2022-10-06T06:05:58.200Z,10.47
2022-10-06T06:09:28.231Z,10.22
2022-10-06T06:12:56.243Z,10.27
2022-10-06T06:16:30.311Z,10.34
2022-10-06T06:19:48.836Z,10.09
2022-10-06T06:23:06.299Z,10.09
2022-10-06T06:26:32.269Z,10.00
2022-10-06T06:29:56.250Z,9.68
2022-10-06T06:33:21.225Z,9.82
2022-10-06T06:36:55.224Z,9.77
2022-10-06T06:40:20.233Z,9.70
2022-10-06T06:43:44.211Z,9.87
2022-10-06T06:47:20.915Z,9.74
2022-10-06T06:50:49.251Z,9.52
2022-10-06T06:54:14.252Z,9.50
2022-10-06T06:57:43.308Z,9.62
2022-10-06T07:01:08.351Z,9.40
2022-10-06T07:04:34.294Z,9.37
2022-10-06T07:08:00.232Z,9.21
2022-10-06T07:11:48.265Z,9.12
2022-10-06T07:15:36.240Z,9.09
2022-10-06T07:19:23.820Z,9.09
2022-10-06T07:23:00.711Z,8.97
2022-10-06T07:26:18.265Z,8.94
2022-10-06T07:29:43.229Z,8.88
2022-10-06T07:33:07.318Z,8.81
2022-10-06T07:36:32.258Z,8.80
2022-10-06T07:39:57.219Z,8.68
2022-10-06T07:43:21.281Z,8.50
2022-10-06T07:46:46.295Z,8.57
2022-10-06T07:50:24.298Z,8.52
2022-10-06T07:53:49.284Z,8.43
2022-10-06T07:57:43.262Z,8.21
2022-10-06T08:01:07.257Z,8.30
2022-10-06T08:04:31.256Z,8.29
2022-10-06T08:07:55.241Z,8.18
2022-10-06T08:11:21.365Z,8.27
2022-10-06T08:14:47.241Z,8.24
2022-10-06T08:18:33.679Z,8.29
2022-10-06T08:21:50.827Z,8.27
2022-10-06T08:25:08.649Z,8.25
2022-10-06T08:28:34.380Z,8.25
2022-10-06T08:31:58.460Z,8.18
2022-10-06T08:35:22.286Z,8.18
2022-10-06T08:38:46.329Z,8.18
2022-10-06T08:42:11.239Z,8.11
2022-10-06T08:45:44.323Z,8.12
2022-10-06T08:49:07.301Z,8.13
2022-10-06T08:52:39.286Z,8.09
2022-10-06T08:56:14.309Z,7.99
2022-10-06T08:59:39.311Z,7.88
2022-10-06T09:03:04.316Z,7.88
2022-10-06T09:06:52.297Z,7.77
2022-10-06T09:10:42.277Z,7.68
2022-10-06T09:14:22.253Z,7.57
2022-10-06T09:17:55.308Z,7.60
2022-10-06T09:21:21.335Z,7.52
2022-10-06T09:24:58.305Z,7.54
2022-10-06T09:28:27.344Z,7.43
2022-10-06T09:31:59.310Z,7.33
2022-10-06T09:35:38.306Z,7.34
2022-10-06T09:39:07.331Z,7.24
2022-10-06T09:42:52.269Z,7.35
2022-10-06T09:46:36.339Z,7.36
2022-10-06T09:50:37.323Z,7.43
2022-10-06T09:54:28.340Z,7.46
2022-10-06T09:57:52.316Z,7.50
2022-10-06T10:01:24.349Z,7.51
2022-10-06T10:04:53.267Z,7.48
2022-10-06T10:08:38.335Z,7.38
2022-10-06T10:12:41.274Z,7.41
2022-10-06T10:16:12.378Z,7.36
2022-10-06T10:19:44.277Z,7.26
2022-10-06T10:23:12.318Z,7.17
2022-10-06T10:26:59.894Z,7.08
2022-10-06T10:30:19.350Z,7.21
2022-10-06T10:34:12.495Z,7.04
2022-10-06T10:37:50.297Z,6.95
2022-10-06T10:41:17.344Z,6.74
2022-10-06T10:44:52.273Z,6.82
2022-10-06T10:48:25.298Z,6.77
2022-10-06T10:51:57.370Z,6.56
2022-10-06T10:55:43.369Z,6.24
2022-10-06T10:59:15.295Z,6.12
2022-10-06T11:02:38.376Z,6.23
2022-10-06T11:06:12.287Z,6.16
2022-10-06T11:09:52.320Z,6.17
2022-10-06T11:13:34.478Z,6.25
2022-10-06T11:17:01.295Z,6.04
2022-10-06T11:21:01.351Z,6.22
2022-10-06T11:24:46.367Z,5.93
2022-10-06T11:28:21.428Z,5.43
2022-10-06T11:32:04.409Z,5.26
2022-10-06T11:35:38.338Z,5.22
2022-10-06T11:39:09.336Z,5.07
2022-10-06T11:42:50.335Z,4.90
2022-10-06T11:46:31.051Z,4.79
2022-10-06T11:50:07.330Z,4.75
2022-10-06T11:53:53.319Z,4.47
2022-10-06T11:57:17.324Z,4.90
2022-10-06T12:00:41.297Z,4.91
2022-10-06T12:04:24.842Z,4.86
2022-10-06T12:08:11.347Z,4.43
2022-10-06T12:11:55.402Z,4.43
2022-10-06T12:16:58.220Z,4.56
2022-10-06T12:19:26.326Z,4.76
2022-10-06T12:22:55.353Z,5.09
2022-10-06T12:26:44.411Z,4.98
2022-10-06T12:30:11.927Z,5.19
2022-10-06T12:33:46.420Z,4.65
2022-10-06T12:37:44.347Z,4.09
2022-10-06T12:41:09.332Z,3.95
2022-10-06T12:44:45.303Z,4.34
2022-10-06T12:48:10.400Z,4.44
2022-10-06T12:51:51.359Z,4.43
2022-10-06T12:55:43.399Z,4.13
2022-10-06T12:59:09.407Z,4.08
2022-10-06T13:02:35.471Z,4.07
2022-10-06T13:06:08.313Z,4.18
2022-10-06T13:09:31.402Z,3.99
2022-10-06T13:12:58.323Z,3.49
2022-10-06T13:16:24.393Z,3.57
2022-10-06T13:19:48.372Z,3.38
2022-10-06T13:23:18.391Z,3.44
2022-10-06T13:26:45.320Z,3.30
2022-10-06T13:30:38.348Z,3.08
2022-10-06T13:34:13.374Z,3.27
2022-10-06T13:37:37.391Z,3.33
2022-10-06T13:41:37.329Z,3.21
2022-10-06T13:45:22.371Z,3.69
2022-10-06T13:48:46.341Z,3.76
2022-10-06T13:52:12.923Z,3.33
2022-10-06T13:55:40.363Z,3.13
2022-10-06T13:59:04.431Z,3.10
2022-10-06T14:02:36.428Z,3.33
2022-10-06T14:06:00.370Z,3.19
2022-10-06T14:09:26.329Z,3.14
2022-10-06T14:12:51.376Z,3.02
2022-10-06T14:16:23.464Z,3.08
2022-10-06T14:19:53.403Z,2.85
2022-10-06T14:23:17.423Z,2.79
2022-10-06T14:26:47.365Z,2.85
2022-10-06T14:30:12.523Z,2.94
2022-10-06T14:33:38.411Z,2.99
2022-10-06T14:37:05.393Z,2.88
2022-10-06T14:40:30.369Z,2.67
2022-10-06T14:43:55.352Z,2.83
2022-10-06T14:47:19.394Z,2.62
2022-10-06T14:50:43.427Z,2.70
2022-10-06T14:54:09.344Z,2.73
2022-10-06T14:57:33.436Z,2.87
2022-10-06T15:00:57.394Z,2.63
2022-10-06T15:04:32.416Z,2.50
2022-10-06T15:08:14.339Z,2.76
2022-10-06T15:11:40.391Z,2.55
2022-10-06T15:15:05.409Z,2.53
2022-10-06T15:18:30.392Z,2.67
2022-10-06T15:21:56.409Z,2.58
2022-10-06T15:25:39.350Z,2.32
2022-10-06T15:29:09.396Z,2.16
2022-10-06T15:32:33.382Z,2.38
2022-10-06T15:35:58.364Z,2.04
2022-10-06T15:39:25.559Z,2.27
2022-10-06T15:42:48.398Z,2.33
2022-10-06T15:46:12.446Z,2.25
2022-10-06T15:49:40.471Z,2.29
2022-10-06T15:53:05.381Z,2.08
2022-10-06T15:56:29.419Z,2.06
2022-10-06T15:59:53.419Z,1.71
2022-10-06T16:03:32.431Z,1.69
2022-10-06T16:06:58.402Z,1.93
2022-10-06T16:10:21.587Z,1.82
2022-10-06T16:13:46.383Z,1.69
2022-10-06T16:17:10.402Z,1.79
2022-10-06T16:20:34.377Z,1.88
2022-10-06T16:23:58.365Z,1.81
2022-10-06T16:27:24.446Z,1.87
2022-10-06T16:30:48.416Z,1.83
2022-10-06T16:34:12.455Z,1.86
2022-10-06T16:37:36.369Z,1.73
2022-10-06T16:41:14.425Z,1.76
2022-10-06T16:44:39.371Z,1.60
2022-10-06T16:48:03.420Z,1.67
2022-10-06T16:51:38.400Z,1.70
2022-10-06T16:55:04.408Z,1.74
2022-10-06T16:58:29.423Z,1.76
2022-10-06T17:01:53.433Z,1.73
2022-10-06T17:05:17.455Z,1.24
2022-10-06T17:08:40.449Z,1.29
2022-10-06T17:12:15.367Z,1.37
2022-10-06T17:15:38.449Z,1.57
2022-10-06T17:19:06.382Z,1.60
2022-10-06T17:22:30.472Z,1.52
2022-10-06T17:25:54.411Z,1.37
2022-10-06T17:29:26.537Z,1.34
2022-10-06T17:32:52.465Z,1.64
2022-10-06T17:36:25.454Z,1.53
2022-10-06T17:39:49.462Z,1.40
2022-10-06T17:43:07.424Z,1.24
2022-10-06T17:46:33.440Z,1.46
2022-10-06T17:49:58.412Z,1.39
2022-10-06T17:53:22.424Z,1.41
2022-10-06T17:56:48.480Z,1.40
2022-10-06T18:00:13.451Z,1.57
2022-10-06T18:03:38.457Z,1.51
2022-10-06T18:07:03.407Z,1.79
2022-10-06T18:10:45.451Z,2.37
2022-10-06T18:14:11.421Z,2.36
2022-10-06T18:17:36.449Z,2.36
2022-10-06T18:21:00.432Z,2.64
2022-10-06T18:24:35.468Z,2.64
2022-10-06T18:28:00.515Z,2.95
2022-10-06T18:31:24.530Z,3.13
2022-10-06T18:38:36.484Z,3.89
2022-10-06T18:42:00.432Z,4.30
2022-10-06T18:45:43.458Z,4.27
2022-10-06T18:49:08.390Z,4.47
2022-10-06T18:52:32.486Z,4.76
2022-10-06T18:55:57.393Z,5.31
2022-10-06T18:59:24.474Z,5.30
2022-10-06T19:02:48.693Z,5.94
2022-10-06T19:06:11.478Z,5.58
2022-10-06T19:09:37.440Z,5.80
2022-10-06T19:13:01.428Z,5.98
2022-10-06T19:16:26.493Z,6.29
2022-10-06T19:20:03.444Z,6.38
2022-10-06T19:23:27.488Z,6.21
2022-10-06T19:26:52.414Z,6.26
2022-10-06T19:30:17.503Z,6.93
2022-10-06T19:33:41.454Z,7.63
2022-10-06T19:37:06.499Z,7.74
2022-10-06T19:40:24.088Z,8.01
2022-10-06T19:43:41.474Z,8.74
2022-10-06T19:47:05.451Z,8.64
2022-10-06T19:50:30.457Z,8.86
2022-10-06T19:53:59.467Z,8.81
2022-10-06T19:57:23.519Z,9.34
2022-10-06T20:00:49.395Z,9.36
2022-10-06T20:04:13.536Z,9.90
2022-10-06T20:07:38.411Z,9.72
2022-10-06T20:11:03.449Z,9.88
2022-10-06T20:14:34.464Z,9.94
2022-10-06T20:17:58.475Z,10.14
2022-10-06T20:21:27.416Z,10.42
2022-10-06T20:24:51.448Z,10.91
2022-10-06T20:28:17.485Z,11.61
2022-10-06T20:31:48.455Z,11.28
2022-10-06T20:35:12.476Z,11.64
2022-10-06T20:38:55.502Z,11.55
2022-10-06T20:42:15.169Z,12.20
2022-10-06T20:45:32.509Z,12.23
2022-10-06T20:48:58.482Z,12.83
2022-10-06T20:52:22.495Z,12.12
2022-10-06T20:55:46.445Z,12.58
2022-10-06T20:59:10.513Z,12.53
2022-10-06T21:02:35.532Z,13.51
2022-10-06T21:06:05.418Z,13.66
2022-10-06T21:09:32.462Z,13.73
2022-10-06T21:12:56.420Z,14.05
2022-10-06T21:16:20.539Z,14.83
2022-10-06T21:19:45.449Z,14.18
2022-10-06T21:23:10.462Z,15.05
2022-10-06T21:26:36.436Z,15.73
2022-10-06T21:30:00.457Z,15.39
2022-10-06T21:33:24.451Z,14.96
2022-10-06T21:36:48.471Z,15.40
2022-10-06T21:40:12.453Z,16.08
2022-10-06T21:43:39.470Z,15.40
2022-10-06T21:47:10.494Z,16.36
2022-10-06T21:50:34.465Z,17.31
2022-10-06T21:53:58.443Z,16.81
2022-10-06T21:57:23.523Z,17.90
2022-10-06T22:00:47.480Z,16.93
2022-10-06T22:04:12.468Z,17.51
2022-10-06T22:07:36.435Z,17.96
2022-10-06T22:11:00.478Z,17.45
2022-10-06T22:14:31.445Z,17.65
2022-10-06T22:17:55.464Z,17.66
2022-10-06T22:21:28.457Z,17.96
2022-10-06T22:24:52.483Z,17.95
2022-10-06T22:28:16.473Z,17.79
2022-10-06T22:31:41.539Z,18.25
2022-10-06T22:35:06.446Z,18.33
2022-10-06T22:38:30.569Z,18.38
2022-10-06T22:41:54.446Z,18.30
2022-10-06T22:45:18.502Z,18.72
2022-10-06T22:48:43.453Z,18.67
2022-10-06T22:52:07.514Z,18.32
2022-10-06T22:55:31.471Z,19.02
2022-10-06T22:58:55.516Z,19.29
2022-10-06T23:02:20.451Z,19.26
2022-10-06T23:05:44.510Z,19.57
2022-10-06T23:09:08.462Z,19.38
2022-10-06T23:12:32.514Z,18.84
2022-10-06T23:15:56.509Z,18.75
2022-10-06T23:19:21.520Z,19.66
2022-10-06T23:22:45.478Z,20.04
2022-10-06T23:26:09.508Z,20.01
2022-10-06T23:29:33.484Z,20.27
2022-10-06T23:32:56.503Z,19.38
2022-10-06T23:36:23.660Z,19.34
2022-10-06T23:39:46.501Z,19.65
2022-10-06T23:43:10.545Z,19.81
2022-10-06T23:46:34.604Z,19.14
2022-10-06T23:49:58.481Z,20.05
2022-10-06T23:53:22.534Z,19.48
2022-10-06T23:56:46.540Z,20.07
